This is the latest recevied weather packets stored in our database for station/object VA7NEZ. If no packets are shown the sender has not sent any weather packets the latest 10 day(s).
| Time | Temp. | Humidity | Pressure | Rain* | Wind** | Luminosity | Snow |
|---|---|---|---|---|---|---|---|
| 1778283668 | 21.11° C | 27% | 1013.5 hPa | 0 mm | - | - | - |
| 1778283101 | 21.11° C | 27% | 1013.3 hPa | 0 mm | - | - | - |
| 1778282536 | 21.67° C | 26% | 1013.3 hPa | 0 mm | - | - | - |
| 1778281431 | 22.78° C | 27% | 1013.3 hPa | 0 mm | - | - | - |
| 1778280856 | 22.22° C | 29% | 1013.2 hPa | 0 mm | - | - | - |
| 1778280336 | 22.22° C | 26% | 1013.1 hPa | 0 mm | - | - | - |
| 1778279331 | 21.67° C | 30% | 1013.2 hPa | 0 mm | - | - | - |
| 1778278841 | 21.11° C | 28% | 1013.2 hPa | 0 mm | - | - | - |
| 1778278361 | 20.56° C | 30% | 1013.1 hPa | 0 mm | - | - | - |
| 1778277856 | 20.56° C | 31% | 1012.9 hPa | 0 mm | - | - | - |
| 1778277261 | 21.11° C | 30% | 1012.9 hPa | 0 mm | - | - | - |
| 1778276193 | 21.67° C | 30% | 1012.9 hPa | 0 mm | - | - | - |
| 1778275641 | 21.67° C | 31% | 1012.7 hPa | 0 mm | - | - | - |
| 1778275156 | 21.67° C | 29% | 1012.6 hPa | 0 mm | - | - | - |
| 1778274572 | 22.22° C | 29% | 1012.6 hPa | 0 mm | - | - | - |
| 1778274031 | 22.22° C | 28% | 1012.6 hPa | 0 mm | - | - | - |
| 1778273491 | 21.67° C | 30% | 1012.5 hPa | 0 mm | - | - | - |
| 1778272956 | 0° C | 100% | 1012.6 hPa | 0 mm | - | - | - |
| 1778272386 | 0° C | 100% | 1012.7 hPa | 0 mm | - | - | - |
| 1778271792 | 21.67° C | 33% | 1012.7 hPa | 0 mm | - | - | - |
| 1778271241 | 20.56° C | 36% | 1012.8 hPa | 0 mm | - | - | - |
| 1778270741 | 20.56° C | 37% | 1012.6 hPa | 0 mm | - | - | - |
| 1778270193 | 20.56° C | 37% | 1012.8 hPa | 0 mm | - | - | - |
| 1778269626 | 20° C | 38% | 1012.7 hPa | 0 mm | - | - | - |
| 1778269101 | 20° C | 37% | 1012.9 hPa | 0 mm | - | - | - |
* Rain latest hour (hover to see other rain measurements)
** Current wind speed in m/s (hover to see current wind gust speed)